sensor_id;sensor_type;location;lat;lon;timestamp;noise_LAeq;noise_LA_min;noise_LA_max;noise_LA01;noise_LA95
41518;Laerm;27249;48.094;-1.690;2024-03-06T00:02:17;52.83;42.22;65.49;;
41518;Laerm;27249;48.094;-1.690;2024-03-06T00:04:42;44.13;42.22;57.55;;
41518;Laerm;27249;48.094;-1.690;2024-03-06T00:07:08;45.67;41.68;53.26;;
41518;Laerm;27249;48.094;-1.690;2024-03-06T00:09:33;50.81;42.76;61.17;;
41518;Laerm;27249;48.094;-1.690;2024-03-06T00:11:58;44.15;41.46;47.12;;
41518;Laerm;27249;48.094;-1.690;2024-03-06T00:14:24;52.41;41.53;66.33;;
41518;Laerm;27249;48.094;-1.690;2024-03-06T00:16:50;46.63;41.68;58.67;;
41518;Laerm;27249;48.094;-1.690;2024-03-06T00:19:16;52.84;42.47;66.77;;
41518;Laerm;27249;48.094;-1.690;2024-03-06T00:21:41;48.09;42.22;60.53;;
41518;Laerm;27249;48.094;-1.690;2024-03-06T00:24:08;50.53;41.96;62.96;;
41518;Laerm;27249;48.094;-1.690;2024-03-06T00:26:33;50.20;41.89;61.04;;
41518;Laerm;27249;48.094;-1.690;2024-03-06T00:28:59;44.43;41.14;54.46;;
41518;Laerm;27249;48.094;-1.690;2024-03-06T00:31:24;44.90;41.61;52.93;;
41518;Laerm;27249;48.094;-1.690;2024-03-06T00:33:49;45.66;42.35;50.21;;
41518;Laerm;27249;48.094;-1.690;2024-03-06T00:36:14;44.06;41.38;47.70;;
41518;Laerm;27249;48.094;-1.690;2024-03-06T00:38:39;45.10;41.96;53.70;;
41518;Laerm;27249;48.094;-1.690;2024-03-06T00:41:05;43.96;41.68;47.75;;
41518;Laerm;27249;48.094;-1.690;2024-03-06T00:43:30;43.98;41.75;46.62;;
41518;Laerm;27249;48.094;-1.690;2024-03-06T00:45:56;46.80;41.61;57.70;;
41518;Laerm;27249;48.094;-1.690;2024-03-06T00:48:21;49.85;42.47;67.34;;
41518;Laerm;27249;48.094;-1.690;2024-03-06T00:50:47;51.44;40.33;63.53;;
41518;Laerm;27249;48.094;-1.690;2024-03-06T00:53:12;44.30;41.53;49.95;;
41518;Laerm;27249;48.094;-1.690;2024-03-06T00:55:37;47.14;41.89;58.13;;
41518;Laerm;27249;48.094;-1.690;2024-03-06T00:58:03;44.57;41.96;48.32;;
41518;Laerm;27249;48.094;-1.690;2024-03-06T01:00:29;44.85;42.09;49.83;;
41518;Laerm;27249;48.094;-1.690;2024-03-06T01:02:54;44.18;41.82;47.55;;
41518;Laerm;27249;48.094;-1.690;2024-03-06T01:05:19;48.54;41.46;62.91;;
41518;Laerm;27249;48.094;-1.690;2024-03-06T01:07:44;46.80;42.03;60.07;;
41518;Laerm;27249;48.094;-1.690;2024-03-06T01:10:10;44.42;41.46;48.39;;
41518;Laerm;27249;48.094;-1.690;2024-03-06T01:12:35;49.71;41.82;60.15;;
41518;Laerm;27249;48.094;-1.690;2024-03-06T01:15:01;43.99;41.38;55.05;;
41518;Laerm;27249;48.094;-1.690;2024-03-06T01:17:26;44.88;42.22;54.01;;
41518;Laerm;27249;48.094;-1.690;2024-03-06T01:19:51;50.23;42.03;61.51;;
41518;Laerm;27249;48.094;-1.690;2024-03-06T01:22:16;50.14;42.22;68.23;;
41518;Laerm;27249;48.094;-1.690;2024-03-06T01:24:42;46.30;41.46;55.46;;
41518;Laerm;27249;48.094;-1.690;2024-03-06T01:27:07;45.17;41.96;51.75;;
41518;Laerm;27249;48.094;-1.690;2024-03-06T01:29:33;49.23;42.41;67.21;;
41518;Laerm;27249;48.094;-1.690;2024-03-06T01:31:58;52.42;42.65;64.45;;
41518;Laerm;27249;48.094;-1.690;2024-03-06T01:34:24;50.59;42.41;59.12;;
41518;Laerm;27249;48.094;-1.690;2024-03-06T01:36:50;44.99;42.29;51.24;;
41518;Laerm;27249;48.094;-1.690;2024-03-06T01:39:15;45.66;42.47;52.87;;
41518;Laerm;27249;48.094;-1.690;2024-03-06T01:41:47;52.80;42.09;71.73;;
41518;Laerm;27249;48.094;-1.690;2024-03-06T01:44:13;53.33;42.82;69.36;;
41518;Laerm;27249;48.094;-1.690;2024-03-06T01:46:38;44.06;41.75;47.75;;
41518;Laerm;27249;48.094;-1.690;2024-03-06T01:49:03;44.04;41.82;47.83;;
41518;Laerm;27249;48.094;-1.690;2024-03-06T01:51:29;47.38;41.75;59.81;;
41518;Laerm;27249;48.094;-1.690;2024-03-06T01:53:54;47.52;42.35;59.85;;
41518;Laerm;27249;48.094;-1.690;2024-03-06T01:56:20;47.69;42.35;60.82;;
41518;Laerm;27249;48.094;-1.690;2024-03-06T01:58:45;46.01;42.35;58.75;;
41518;Laerm;27249;48.094;-1.690;2024-03-06T02:01:12;48.64;41.75;62.90;;
41518;Laerm;27249;48.094;-1.690;2024-03-06T02:03:37;44.75;42.03;49.63;;
41518;Laerm;27249;48.094;-1.690;2024-03-06T02:06:03;51.90;42.76;62.15;;
41518;Laerm;27249;48.094;-1.690;2024-03-06T02:08:29;46.97;42.03;57.00;;
41518;Laerm;27249;48.094;-1.690;2024-03-06T02:10:54;46.56;41.89;62.33;;
41518;Laerm;27249;48.094;-1.690;2024-03-06T02:13:21;49.28;42.03;60.98;;
41518;Laerm;27249;48.094;-1.690;2024-03-06T02:15:46;44.19;41.96;49.60;;
41518;Laerm;27249;48.094;-1.690;2024-03-06T02:18:11;47.05;41.61;57.20;;
41518;Laerm;27249;48.094;-1.690;2024-03-06T02:20:40;44.32;41.89;47.57;;
41518;Laerm;27249;48.094;-1.690;2024-03-06T02:23:06;43.94;41.30;48.05;;
41518;Laerm;27249;48.094;-1.690;2024-03-06T02:25:32;44.10;41.61;47.36;;
41518;Laerm;27249;48.094;-1.690;2024-03-06T02:27:57;46.65;42.09;57.22;;
41518;Laerm;27249;48.094;-1.690;2024-03-06T02:30:22;51.54;42.03;62.66;;
41518;Laerm;27249;48.094;-1.690;2024-03-06T02:32:47;44.32;41.96;48.37;;
41518;Laerm;27249;48.094;-1.690;2024-03-06T02:35:12;44.43;41.96;47.34;;
41518;Laerm;27249;48.094;-1.690;2024-03-06T02:37:38;47.75;42.88;58.79;;
41518;Laerm;27249;48.094;-1.690;2024-03-06T02:40:04;46.95;42.59;58.89;;
41518;Laerm;27249;48.094;-1.690;2024-03-06T02:42:32;46.69;42.59;65.80;;
41518;Laerm;27249;48.094;-1.690;2024-03-06T02:44:57;50.66;43.09;73.57;;
41518;Laerm;27249;48.094;-1.690;2024-03-06T02:47:22;48.11;43.19;63.48;;
41518;Laerm;27249;48.094;-1.690;2024-03-06T02:49:47;44.67;42.35;50.17;;
41518;Laerm;27249;48.094;-1.690;2024-03-06T02:52:12;44.54;41.96;53.33;;
41518;Laerm;27249;48.094;-1.690;2024-03-06T02:54:40;44.23;42.22;47.26;;
41518;Laerm;27249;48.094;-1.690;2024-03-06T02:57:05;50.96;41.82;67.51;;
41518;Laerm;27249;48.094;-1.690;2024-03-06T02:59:32;47.22;42.29;75.25;;
41518;Laerm;27249;48.094;-1.690;2024-03-06T03:01:57;47.52;41.14;61.02;;
41518;Laerm;27249;48.094;-1.690;2024-03-06T03:04:22;45.41;42.88;52.37;;
41518;Laerm;27249;48.094;-1.690;2024-03-06T03:06:48;50.74;42.71;61.47;;
41518;Laerm;27249;48.094;-1.690;2024-03-06T03:09:13;50.01;42.93;60.26;;
41518;Laerm;27249;48.094;-1.690;2024-03-06T03:11:38;45.50;41.94;53.87;;
41518;Laerm;27249;48.094;-1.690;2024-03-06T03:14:03;44.73;42.71;50.30;;
41518;Laerm;27249;48.094;-1.690;2024-03-06T03:16:29;51.76;42.76;61.73;;
41518;Laerm;27249;48.094;-1.690;2024-03-06T03:18:55;49.05;42.09;62.83;;
41518;Laerm;27249;48.094;-1.690;2024-03-06T03:21:20;43.75;41.68;46.40;;
41518;Laerm;27249;48.094;-1.690;2024-03-06T03:23:46;44.65;42.71;54.77;;
41518;Laerm;27249;48.094;-1.690;2024-03-06T03:26:11;47.29;42.47;60.74;;
41518;Laerm;27249;48.094;-1.690;2024-03-06T03:28:40;48.09;42.35;58.33;;
41518;Laerm;27249;48.094;-1.690;2024-03-06T03:31:08;49.14;42.47;61.73;;
41518;Laerm;27249;48.094;-1.690;2024-03-06T03:33:40;47.51;42.82;58.97;;
41518;Laerm;27249;48.094;-1.690;2024-03-06T03:36:05;49.96;42.65;63.00;;
41518;Laerm;27249;48.094;-1.690;2024-03-06T03:38:32;49.11;42.69;60.82;;
41518;Laerm;27249;48.094;-1.690;2024-03-06T03:40:57;52.79;43.34;64.66;;
41518;Laerm;27249;48.094;-1.690;2024-03-06T03:43:23;48.20;43.04;58.34;;
41518;Laerm;27249;48.094;-1.690;2024-03-06T03:45:48;51.70;43.39;61.97;;
41518;Laerm;27249;48.094;-1.690;2024-03-06T03:48:14;49.62;43.04;59.04;;
41518;Laerm;27249;48.094;-1.690;2024-03-06T03:50:39;51.27;43.54;63.79;;
41518;Laerm;27249;48.094;-1.690;2024-03-06T03:53:05;53.38;44.65;65.22;;
41518;Laerm;27249;48.094;-1.690;2024-03-06T03:55:30;49.73;43.99;62.43;;
41518;Laerm;27249;48.094;-1.690;2024-03-06T03:57:55;52.57;43.58;64.10;;
41518;Laerm;27249;48.094;-1.690;2024-03-06T04:00:21;52.88;44.51;59.42;;
41518;Laerm;27249;48.094;-1.690;2024-03-06T04:02:48;48.90;43.72;61.34;;
41518;Laerm;27249;48.094;-1.690;2024-03-06T04:05:13;53.38;44.39;64.65;;
41518;Laerm;27249;48.094;-1.690;2024-03-06T04:07:38;46.59;43.77;54.10;;
41518;Laerm;27249;48.094;-1.690;2024-03-06T04:10:04;47.78;43.58;59.22;;
41518;Laerm;27249;48.094;-1.690;2024-03-06T04:12:29;51.81;43.90;63.53;;
41518;Laerm;27249;48.094;-1.690;2024-03-06T04:14:54;51.18;44.23;62.30;;
41518;Laerm;27249;48.094;-1.690;2024-03-06T04:17:20;50.59;44.07;60.60;;
41518;Laerm;27249;48.094;-1.690;2024-03-06T04:19:45;46.75;44.19;56.23;;
41518;Laerm;27249;48.094;-1.690;2024-03-06T04:22:13;48.64;44.43;57.46;;
41518;Laerm;27249;48.094;-1.690;2024-03-06T04:24:40;49.83;44.27;59.88;;
41518;Laerm;27249;48.094;-1.690;2024-03-06T04:27:06;51.94;44.73;61.49;;
41518;Laerm;27249;48.094;-1.690;2024-03-06T04:29:32;46.72;44.11;53.18;;
41518;Laerm;27249;48.094;-1.690;2024-03-06T04:31:57;50.19;43.90;60.79;;
41518;Laerm;27249;48.094;-1.690;2024-03-06T04:34:23;55.78;45.72;65.78;;
41518;Laerm;27249;48.094;-1.690;2024-03-06T04:36:48;49.95;43.77;56.92;;
41518;Laerm;27249;48.094;-1.690;2024-03-06T04:39:13;46.27;44.07;50.60;;
41518;Laerm;27249;48.094;-1.690;2024-03-06T04:41:39;50.06;44.11;63.35;;
41518;Laerm;27249;48.094;-1.690;2024-03-06T04:44:05;50.44;42.93;61.60;;
41518;Laerm;27249;48.094;-1.690;2024-03-06T04:46:30;51.61;43.39;62.12;;
41518;Laerm;27249;48.094;-1.690;2024-03-06T04:48:55;49.88;43.24;61.89;;
41518;Laerm;27249;48.094;-1.690;2024-03-06T04:51:20;51.44;42.74;63.68;;
41518;Laerm;27249;48.094;-1.690;2024-03-06T04:53:45;53.50;43.63;71.97;;
41518;Laerm;27249;48.094;-1.690;2024-03-06T04:56:11;55.28;46.48;72.24;;
41518;Laerm;27249;48.094;-1.690;2024-03-06T04:58:36;51.35;43.94;64.31;;
41518;Laerm;27249;48.094;-1.690;2024-03-06T05:01:01;51.50;44.23;61.63;;
41518;Laerm;27249;48.094;-1.690;2024-03-06T05:03:28;51.67;43.77;59.05;;
41518;Laerm;27249;48.094;-1.690;2024-03-06T05:08:30;50.68;44.39;60.57;;
41518;Laerm;27249;48.094;-1.690;2024-03-06T05:10:55;49.06;44.65;57.77;;
41518;Laerm;27249;48.094;-1.690;2024-03-06T05:13:21;54.40;46.13;66.22;;
41518;Laerm;27249;48.094;-1.690;2024-03-06T05:15:47;54.13;45.72;66.19;;
41518;Laerm;27249;48.094;-1.690;2024-03-06T05:18:12;48.70;44.51;58.03;;
41518;Laerm;27249;48.094;-1.690;2024-03-06T05:20:37;52.56;45.07;59.65;;
41518;Laerm;27249;48.094;-1.690;2024-03-06T05:23:02;54.59;44.94;61.87;;
41518;Laerm;27249;48.094;-1.690;2024-03-06T05:25:28;53.16;45.20;62.71;;
41518;Laerm;27249;48.094;-1.690;2024-03-06T05:27:53;54.28;45.27;68.68;;
41518;Laerm;27249;48.094;-1.690;2024-03-06T05:30:18;55.60;45.60;65.51;;
41518;Laerm;27249;48.094;-1.690;2024-03-06T05:32:43;57.06;47.65;67.18;;
41518;Laerm;27249;48.094;-1.690;2024-03-06T05:35:08;52.31;45.63;68.14;;
41518;Laerm;27249;48.094;-1.690;2024-03-06T05:37:37;55.81;46.40;69.41;;
41518;Laerm;27249;48.094;-1.690;2024-03-06T05:40:02;54.60;46.62;62.78;;
41518;Laerm;27249;48.094;-1.690;2024-03-06T05:42:29;53.94;44.87;69.49;;
41518;Laerm;27249;48.094;-1.690;2024-03-06T05:44:55;55.68;47.98;68.95;;
41518;Laerm;27249;48.094;-1.690;2024-03-06T05:47:25;57.12;47.16;68.05;;
41518;Laerm;27249;48.094;-1.690;2024-03-06T05:49:50;58.09;46.82;65.93;;
41518;Laerm;27249;48.094;-1.690;2024-03-06T05:52:15;54.31;45.60;65.79;;
41518;Laerm;27249;48.094;-1.690;2024-03-06T05:54:41;57.57;47.65;69.29;;
41518;Laerm;27249;48.094;-1.690;2024-03-06T05:57:06;55.46;47.04;62.34;;
41518;Laerm;27249;48.094;-1.690;2024-03-06T05:59:32;55.18;47.26;67.60;;
41518;Laerm;27249;48.094;-1.690;2024-03-06T06:01:57;56.05;46.59;69.78;;
41518;Laerm;27249;48.094;-1.690;2024-03-06T06:04:22;56.64;46.73;66.63;;
41518;Laerm;27249;48.094;-1.690;2024-03-06T06:06:47;56.41;49.91;69.84;;
41518;Laerm;27249;48.094;-1.690;2024-03-06T06:09:12;55.05;48.16;61.66;;
41518;Laerm;27249;48.094;-1.690;2024-03-06T06:11:40;56.37;50.59;62.68;;
41518;Laerm;27249;48.094;-1.690;2024-03-06T06:14:07;56.87;49.70;68.97;;
41518;Laerm;27249;48.094;-1.690;2024-03-06T06:16:38;58.87;51.01;72.08;;
41518;Laerm;27249;48.094;-1.690;2024-03-06T06:19:05;57.72;52.37;69.57;;
41518;Laerm;27249;48.094;-1.690;2024-03-06T06:21:30;58.89;52.71;71.42;;
41518;Laerm;27249;48.094;-1.690;2024-03-06T06:23:55;58.21;52.85;68.60;;
41518;Laerm;27249;48.094;-1.690;2024-03-06T06:26:21;58.77;50.97;67.46;;
41518;Laerm;27249;48.094;-1.690;2024-03-06T06:28:46;58.40;52.91;67.05;;
41518;Laerm;27249;48.094;-1.690;2024-03-06T06:31:11;57.21;51.40;63.10;;
41518;Laerm;27249;48.094;-1.690;2024-03-06T06:33:36;55.54;49.78;62.45;;
41518;Laerm;27249;48.094;-1.690;2024-03-06T06:36:02;56.81;51.09;64.27;;
41518;Laerm;27249;48.094;-1.690;2024-03-06T06:38:27;59.10;52.33;67.37;;
41518;Laerm;27249;48.094;-1.690;2024-03-06T06:40:52;59.01;52.41;66.57;;
41518;Laerm;27249;48.094;-1.690;2024-03-06T06:43:17;58.25;52.13;63.88;;
41518;Laerm;27249;48.094;-1.690;2024-03-06T06:45:43;59.43;51.01;69.50;;
41518;Laerm;27249;48.094;-1.690;2024-03-06T06:48:08;58.54;51.22;67.71;;
41518;Laerm;27249;48.094;-1.690;2024-03-06T06:50:34;58.83;51.33;64.87;;
41518;Laerm;27249;48.094;-1.690;2024-03-06T06:52:59;57.71;49.91;63.31;;
41518;Laerm;27249;48.094;-1.690;2024-03-06T06:55:25;58.14;50.15;68.24;;
41518;Laerm;27249;48.094;-1.690;2024-03-06T06:57:50;57.42;52.03;67.18;;
41518;Laerm;27249;48.094;-1.690;2024-03-06T07:00:16;57.33;51.44;63.65;;
41518;Laerm;27249;48.094;-1.690;2024-03-06T07:02:43;58.98;51.13;65.83;;
41518;Laerm;27249;48.094;-1.690;2024-03-06T07:05:09;57.92;51.78;63.55;;
41518;Laerm;27249;48.094;-1.690;2024-03-06T07:07:34;59.35;53.57;65.51;;
41518;Laerm;27249;48.094;-1.690;2024-03-06T07:10:00;58.96;53.32;66.02;;
41518;Laerm;27249;48.094;-1.690;2024-03-06T07:12:25;59.14;53.08;63.90;;
41518;Laerm;27249;48.094;-1.690;2024-03-06T07:14:51;58.86;53.45;68.67;;
41518;Laerm;27249;48.094;-1.690;2024-03-06T07:17:16;59.12;52.36;67.80;;
41518;Laerm;27249;48.094;-1.690;2024-03-06T07:19:41;60.30;53.89;70.75;;
41518;Laerm;27249;48.094;-1.690;2024-03-06T07:22:06;59.91;53.95;66.04;;
41518;Laerm;27249;48.094;-1.690;2024-03-06T07:24:32;59.02;53.01;70.12;;
41518;Laerm;27249;48.094;-1.690;2024-03-06T07:26:57;59.37;53.03;65.28;;
41518;Laerm;27249;48.094;-1.690;2024-03-06T07:29:22;59.28;52.82;66.85;;
41518;Laerm;27249;48.094;-1.690;2024-03-06T07:31:48;58.32;51.60;63.08;;
41518;Laerm;27249;48.094;-1.690;2024-03-06T07:34:13;59.20;54.02;64.25;;
41518;Laerm;27249;48.094;-1.690;2024-03-06T07:36:39;59.86;53.46;65.84;;
41518;Laerm;27249;48.094;-1.690;2024-03-06T07:39:04;59.85;52.04;72.25;;
41518;Laerm;27249;48.094;-1.690;2024-03-06T07:41:30;58.06;52.14;62.73;;
41518;Laerm;27249;48.094;-1.690;2024-03-06T07:43:57;59.33;51.61;65.15;;
41518;Laerm;27249;48.094;-1.690;2024-03-06T07:46:23;58.68;50.79;65.84;;
41518;Laerm;27249;48.094;-1.690;2024-03-06T07:48:48;59.75;54.57;68.40;;
41518;Laerm;27249;48.094;-1.690;2024-03-06T07:51:14;59.52;52.47;66.84;;
41518;Laerm;27249;48.094;-1.690;2024-03-06T07:53:39;58.82;53.49;65.92;;
41518;Laerm;27249;48.094;-1.690;2024-03-06T07:56:05;58.79;51.62;67.26;;
41518;Laerm;27249;48.094;-1.690;2024-03-06T07:58:30;57.50;51.04;68.87;;
41518;Laerm;27249;48.094;-1.690;2024-03-06T08:00:56;58.05;50.36;65.47;;
41518;Laerm;27249;48.094;-1.690;2024-03-06T08:03:22;59.06;51.73;63.94;;
41518;Laerm;27249;48.094;-1.690;2024-03-06T08:05:49;59.21;52.15;64.88;;
41518;Laerm;27249;48.094;-1.690;2024-03-06T08:08:15;57.40;50.05;64.62;;
41518;Laerm;27249;48.094;-1.690;2024-03-06T08:10:41;56.99;50.24;65.78;;
41518;Laerm;27249;48.094;-1.690;2024-03-06T08:13:06;57.02;49.93;71.96;;
41518;Laerm;27249;48.094;-1.690;2024-03-06T08:15:31;57.82;52.01;64.51;;
41518;Laerm;27249;48.094;-1.690;2024-03-06T08:17:57;57.24;51.80;63.20;;
41518;Laerm;27249;48.094;-1.690;2024-03-06T08:20:22;57.26;49.58;62.86;;
41518;Laerm;27249;48.094;-1.690;2024-03-06T08:22:48;56.82;49.07;62.88;;
41518;Laerm;27249;48.094;-1.690;2024-03-06T08:25:13;56.03;49.91;62.81;;
41518;Laerm;27249;48.094;-1.690;2024-03-06T08:27:39;57.27;50.07;63.90;;
41518;Laerm;27249;48.094;-1.690;2024-03-06T08:30:05;57.73;49.15;64.08;;
41518;Laerm;27249;48.094;-1.690;2024-03-06T08:32:31;56.56;47.42;64.88;;
41518;Laerm;27249;48.094;-1.690;2024-03-06T08:34:59;57.27;49.14;66.80;;
41518;Laerm;27249;48.094;-1.690;2024-03-06T08:37:24;56.96;49.06;66.12;;
41518;Laerm;27249;48.094;-1.690;2024-03-06T08:39:51;57.21;50.73;71.17;;
41518;Laerm;27249;48.094;-1.690;2024-03-06T08:42:16;57.69;48.96;63.82;;
41518;Laerm;27249;48.094;-1.690;2024-03-06T08:44:43;57.79;52.42;67.12;;
41518;Laerm;27249;48.094;-1.690;2024-03-06T08:47:08;67.37;53.79;90.03;;
41518;Laerm;27249;48.094;-1.690;2024-03-06T08:49:34;57.79;50.90;63.78;;
41518;Laerm;27249;48.094;-1.690;2024-03-06T08:51:59;56.19;49.73;64.70;;
41518;Laerm;27249;48.094;-1.690;2024-03-06T08:54:25;55.74;48.36;62.25;;
41518;Laerm;27249;48.094;-1.690;2024-03-06T08:56:50;55.44;49.03;60.99;;
41518;Laerm;27249;48.094;-1.690;2024-03-06T08:59:18;57.64;50.18;64.41;;
41518;Laerm;27249;48.094;-1.690;2024-03-06T09:01:43;60.78;51.19;74.01;;
41518;Laerm;27249;48.094;-1.690;2024-03-06T09:04:09;56.69;49.59;63.40;;
41518;Laerm;27249;48.094;-1.690;2024-03-06T09:06:34;57.55;46.25;64.90;;
41518;Laerm;27249;48.094;-1.690;2024-03-06T09:08:59;57.97;52.11;65.73;;
41518;Laerm;27249;48.094;-1.690;2024-03-06T09:11:24;56.95;48.07;67.98;;
41518;Laerm;27249;48.094;-1.690;2024-03-06T09:13:49;55.69;48.10;64.08;;
41518;Laerm;27249;48.094;-1.690;2024-03-06T09:16:14;55.87;47.28;64.63;;
41518;Laerm;27249;48.094;-1.690;2024-03-06T09:18:40;56.57;50.39;62.66;;
41518;Laerm;27249;48.094;-1.690;2024-03-06T09:21:06;56.44;49.49;62.59;;
41518;Laerm;27249;48.094;-1.690;2024-03-06T09:23:31;56.12;48.62;68.81;;
41518;Laerm;27249;48.094;-1.690;2024-03-06T09:25:58;55.94;47.68;63.37;;
41518;Laerm;27249;48.094;-1.690;2024-03-06T09:28:24;56.52;47.22;63.60;;
41518;Laerm;27249;48.094;-1.690;2024-03-06T09:30:49;56.48;49.06;64.81;;
41518;Laerm;27249;48.094;-1.690;2024-03-06T09:33:15;56.66;50.06;64.47;;
41518;Laerm;27249;48.094;-1.690;2024-03-06T09:35:40;56.63;48.54;64.64;;
41518;Laerm;27249;48.094;-1.690;2024-03-06T09:38:10;56.44;49.69;62.56;;
41518;Laerm;27249;48.094;-1.690;2024-03-06T09:40:35;57.10;48.90;64.26;;
41518;Laerm;27249;48.094;-1.690;2024-03-06T09:43:00;56.10;49.43;62.61;;
41518;Laerm;27249;48.094;-1.690;2024-03-06T09:45:25;56.44;46.91;62.38;;
41518;Laerm;27249;48.094;-1.690;2024-03-06T09:47:51;56.14;48.80;68.04;;
41518;Laerm;27249;48.094;-1.690;2024-03-06T09:50:17;56.57;49.30;62.57;;
41518;Laerm;27249;48.094;-1.690;2024-03-06T09:52:48;56.03;49.97;66.20;;
41518;Laerm;27249;48.094;-1.690;2024-03-06T09:55:15;56.85;48.31;66.33;;
41518;Laerm;27249;48.094;-1.690;2024-03-06T09:57:41;56.38;47.90;64.74;;
41518;Laerm;27249;48.094;-1.690;2024-03-06T10:00:07;56.40;47.12;63.63;;
41518;Laerm;27249;48.094;-1.690;2024-03-06T10:02:39;56.72;50.03;69.28;;
41518;Laerm;27249;48.094;-1.690;2024-03-06T10:05:09;55.66;49.43;63.92;;
41518;Laerm;27249;48.094;-1.690;2024-03-06T10:07:45;56.85;48.34;65.51;;
41518;Laerm;27249;48.094;-1.690;2024-03-06T10:10:10;56.91;51.44;64.42;;
41518;Laerm;27249;48.094;-1.690;2024-03-06T10:12:35;57.55;50.54;65.10;;
41518;Laerm;27249;48.094;-1.690;2024-03-06T10:15:01;57.05;46.25;69.08;;
41518;Laerm;27249;48.094;-1.690;2024-03-06T10:17:26;56.14;49.18;62.03;;
41518;Laerm;27249;48.094;-1.690;2024-03-06T10:19:52;56.56;48.05;63.51;;
41518;Laerm;27249;48.094;-1.690;2024-03-06T10:22:20;54.99;49.43;60.62;;
41518;Laerm;27249;48.094;-1.690;2024-03-06T10:24:45;55.53;48.23;65.02;;
41518;Laerm;27249;48.094;-1.690;2024-03-06T10:27:14;57.88;49.73;65.58;;
41518;Laerm;27249;48.094;-1.690;2024-03-06T10:29:40;57.41;49.18;64.24;;
41518;Laerm;27249;48.094;-1.690;2024-03-06T10:32:05;72.74;46.84;91.08;;
41518;Laerm;27249;48.094;-1.690;2024-03-06T10:34:30;71.44;50.68;91.09;;
41518;Laerm;27249;48.094;-1.690;2024-03-06T10:36:58;56.72;49.56;68.16;;
41518;Laerm;27249;48.094;-1.690;2024-03-06T10:39:24;55.77;48.52;62.65;;
41518;Laerm;27249;48.094;-1.690;2024-03-06T10:41:53;58.26;50.89;71.71;;
41518;Laerm;27249;48.094;-1.690;2024-03-06T10:44:20;57.36;49.35;67.49;;
41518;Laerm;27249;48.094;-1.690;2024-03-06T10:46:46;57.10;48.42;65.06;;
41518;Laerm;27249;48.094;-1.690;2024-03-06T10:49:18;57.25;47.86;67.39;;
41518;Laerm;27249;48.094;-1.690;2024-03-06T10:51:44;56.34;48.69;63.95;;
41518;Laerm;27249;48.094;-1.690;2024-03-06T10:54:11;56.94;50.22;74.65;;
41518;Laerm;27249;48.094;-1.690;2024-03-06T10:56:39;57.31;47.54;69.41;;
41518;Laerm;27249;48.094;-1.690;2024-03-06T10:59:09;56.11;48.37;64.21;;
41518;Laerm;27249;48.094;-1.690;2024-03-06T11:01:35;55.74;46.76;62.51;;
41518;Laerm;27249;48.094;-1.690;2024-03-06T11:04:01;56.79;47.26;67.29;;
41518;Laerm;27249;48.094;-1.690;2024-03-06T11:06:26;60.54;48.37;76.36;;
41518;Laerm;27249;48.094;-1.690;2024-03-06T11:08:51;66.83;51.50;85.61;;
41518;Laerm;27249;48.094;-1.690;2024-03-06T11:11:23;57.51;49.28;65.56;;
41518;Laerm;27249;48.094;-1.690;2024-03-06T11:13:49;59.40;52.27;70.63;;
41518;Laerm;27249;48.094;-1.690;2024-03-06T11:16:15;60.10;54.42;67.80;;
41518;Laerm;27249;48.094;-1.690;2024-03-06T11:18:41;60.57;57.00;65.38;;
41518;Laerm;27249;48.094;-1.690;2024-03-06T11:23:34;59.17;54.98;62.88;;
41518;Laerm;27249;48.094;-1.690;2024-03-06T11:26:03;60.82;55.97;76.90;;
41518;Laerm;27249;48.094;-1.690;2024-03-06T11:28:35;59.07;54.33;65.05;;
41518;Laerm;27249;48.094;-1.690;2024-03-06T11:33:39;56.84;48.83;62.82;;
41518;Laerm;27249;48.094;-1.690;2024-03-06T11:36:14;59.95;53.31;66.02;;
41518;Laerm;27249;48.094;-1.690;2024-03-06T11:38:40;55.75;47.77;64.33;;
41518;Laerm;27249;48.094;-1.690;2024-03-06T11:41:06;55.59;45.69;62.88;;
41518;Laerm;27249;48.094;-1.690;2024-03-06T11:43:33;56.22;49.50;63.02;;
41518;Laerm;27249;48.094;-1.690;2024-03-06T11:46:09;55.56;46.08;64.88;;
41518;Laerm;27249;48.094;-1.690;2024-03-06T11:48:35;55.99;49.03;64.02;;
41518;Laerm;27249;48.094;-1.690;2024-03-06T11:51:01;56.52;47.00;67.57;;
41518;Laerm;27249;48.094;-1.690;2024-03-06T11:53:28;56.91;49.20;68.09;;
41518;Laerm;27249;48.094;-1.690;2024-03-06T11:55:53;55.75;49.04;62.77;;
41518;Laerm;27249;48.094;-1.690;2024-03-06T11:58:18;57.01;48.90;65.57;;
41518;Laerm;27249;48.094;-1.690;2024-03-06T12:00:44;56.87;46.93;69.07;;
41518;Laerm;27249;48.094;-1.690;2024-03-06T12:03:11;58.66;50.23;71.58;;
41518;Laerm;27249;48.094;-1.690;2024-03-06T12:05:37;60.80;54.83;66.73;;
41518;Laerm;27249;48.094;-1.690;2024-03-06T12:08:02;65.60;51.13;81.53;;
41518;Laerm;27249;48.094;-1.690;2024-03-06T12:10:28;57.10;50.06;66.57;;
41518;Laerm;27249;48.094;-1.690;2024-03-06T12:12:53;55.65;44.72;61.02;;
41518;Laerm;27249;48.094;-1.690;2024-03-06T12:15:18;55.57;44.76;68.04;;
41518;Laerm;27249;48.094;-1.690;2024-03-06T12:17:44;60.77;46.66;75.03;;
41518;Laerm;27249;48.094;-1.690;2024-03-06T12:20:13;57.71;49.44;68.11;;
41518;Laerm;27249;48.094;-1.690;2024-03-06T12:25:21;56.85;47.77;68.22;;
41518;Laerm;27249;48.094;-1.690;2024-03-06T12:27:47;56.18;45.83;64.98;;
41518;Laerm;27249;48.094;-1.690;2024-03-06T12:30:12;55.17;46.20;65.19;;
41518;Laerm;27249;48.094;-1.690;2024-03-06T12:32:41;58.02;46.55;65.08;;
41518;Laerm;27249;48.094;-1.690;2024-03-06T12:35:07;61.01;56.73;68.43;;
41518;Laerm;27249;48.094;-1.690;2024-03-06T12:37:32;60.78;56.55;68.32;;
41518;Laerm;27249;48.094;-1.690;2024-03-06T12:39:57;59.86;55.35;66.54;;
41518;Laerm;27249;48.094;-1.690;2024-03-06T12:42:23;62.77;54.84;69.97;;
41518;Laerm;27249;48.094;-1.690;2024-03-06T12:44:49;61.06;49.51;68.64;;
41518;Laerm;27249;48.094;-1.690;2024-03-06T12:47:14;58.79;51.18;69.12;;
41518;Laerm;27249;48.094;-1.690;2024-03-06T12:49:40;58.15;49.29;70.63;;
41518;Laerm;27249;48.094;-1.690;2024-03-06T12:52:05;57.34;48.57;66.09;;
41518;Laerm;27249;48.094;-1.690;2024-03-06T12:54:30;55.29;47.20;62.38;;
41518;Laerm;27249;48.094;-1.690;2024-03-06T12:56:55;56.18;47.40;70.95;;
41518;Laerm;27249;48.094;-1.690;2024-03-06T12:59:22;56.93;47.05;67.06;;
41518;Laerm;27249;48.094;-1.690;2024-03-06T13:01:47;56.57;49.11;74.28;;
41518;Laerm;27249;48.094;-1.690;2024-03-06T13:04:12;56.98;49.19;70.15;;
41518;Laerm;27249;48.094;-1.690;2024-03-06T13:06:39;57.10;47.44;65.51;;
41518;Laerm;27249;48.094;-1.690;2024-03-06T13:09:05;58.48;50.52;69.06;;
41518;Laerm;27249;48.094;-1.690;2024-03-06T13:11:31;57.54;49.38;67.65;;
41518;Laerm;27249;48.094;-1.690;2024-03-06T13:13:56;56.87;50.31;65.27;;
41518;Laerm;27249;48.094;-1.690;2024-03-06T13:16:22;55.38;47.14;66.06;;
41518;Laerm;27249;48.094;-1.690;2024-03-06T13:18:47;55.72;49.15;61.87;;
41518;Laerm;27249;48.094;-1.690;2024-03-06T13:21:12;55.48;45.23;63.16;;
41518;Laerm;27249;48.094;-1.690;2024-03-06T13:23:37;56.02;47.54;62.03;;
41518;Laerm;27249;48.094;-1.690;2024-03-06T13:26:03;55.71;49.21;64.82;;
41518;Laerm;27249;48.094;-1.690;2024-03-06T13:28:28;57.20;48.43;63.39;;
41518;Laerm;27249;48.094;-1.690;2024-03-06T13:30:53;57.25;51.17;63.58;;
41518;Laerm;27249;48.094;-1.690;2024-03-06T13:33:19;57.76;49.54;67.26;;
41518;Laerm;27249;48.094;-1.690;2024-03-06T13:35:44;57.04;50.35;68.36;;